createdAt,value
2018-11-03T00:00:34.885Z,447
2018-11-03T00:01:41.546Z,448
2018-11-03T00:02:48.754Z,447
2018-11-03T00:03:55.734Z,448
2018-11-03T00:05:02.659Z,448
2018-11-03T00:06:09.604Z,448
2018-11-03T00:07:16.551Z,447
2018-11-03T00:08:23.798Z,447
2018-11-03T00:09:30.725Z,447
2018-11-03T00:10:37.656Z,447
2018-11-03T00:11:44.868Z,448
2018-11-03T00:12:52.081Z,447
2018-11-03T00:13:58.737Z,447
2018-11-03T00:15:05.950Z,446
2018-11-03T00:16:13.158Z,447
2018-11-03T00:17:20.370Z,447
2018-11-03T00:18:27.039Z,447
2018-11-03T00:19:34.239Z,446
2018-11-03T00:20:41.172Z,446
2018-11-03T00:21:48.379Z,447
2018-11-03T00:22:55.310Z,446
2018-11-03T00:24:02.510Z,447
2018-11-03T00:25:09.931Z,446
2018-11-03T00:26:17.150Z,446
2018-11-03T00:27:23.599Z,446
2018-11-03T00:28:30.522Z,446
2018-11-03T00:29:37.453Z,447
2018-11-03T00:30:44.389Z,447
2018-11-03T00:31:51.584Z,446
2018-11-03T00:32:58.547Z,447
2018-11-03T00:34:05.197Z,446
2018-11-03T00:35:11.858Z,446
2018-11-03T00:36:19.061Z,446
2018-11-03T00:37:25.720Z,446
2018-11-03T00:38:32.923Z,446
2018-11-03T00:39:40.143Z,446
2018-11-03T00:40:47.326Z,446
2018-11-03T00:41:54.251Z,446
2018-11-03T00:43:01.186Z,445
2018-11-03T00:44:08.111Z,445
2018-11-03T00:45:15.039Z,446
2018-11-03T00:46:22.249Z,446
2018-11-03T00:47:29.455Z,445
2018-11-03T00:48:36.652Z,445
2018-11-03T00:49:43.585Z,445
2018-11-03T00:50:50.866Z,446
2018-11-03T00:51:57.758Z,445
2018-11-03T00:53:05.052Z,445
2018-11-03T00:54:12.047Z,445
2018-11-03T00:55:18.981Z,445
2018-11-03T00:56:25.911Z,445
2018-11-03T00:57:32.853Z,445
2018-11-03T00:58:40.066Z,446
2018-11-03T00:59:47.271Z,446
2018-11-03T01:00:54.472Z,447
2018-11-03T01:02:01.674Z,446
2018-11-03T01:03:08.880Z,446
2018-11-03T01:04:16.076Z,446
2018-11-03T01:05:23.275Z,446
2018-11-03T01:06:30.203Z,446
2018-11-03T01:07:37.129Z,446
2018-11-03T01:08:44.368Z,447
2018-11-03T01:09:51.574Z,447
2018-11-03T01:10:58.778Z,447
2018-11-03T01:12:05.453Z,447
2018-11-03T01:13:12.656Z,448
2018-11-03T01:14:19.857Z,447
2018-11-03T01:15:26.782Z,447
2018-11-03T01:16:33.711Z,447
2018-11-03T01:17:40.647Z,447
2018-11-03T01:18:47.849Z,447
2018-11-03T01:19:55.056Z,447
2018-11-03T01:21:01.977Z,448
2018-11-03T01:22:09.175Z,447
2018-11-03T01:23:16.378Z,447
2018-11-03T01:24:23.307Z,447
2018-11-03T01:25:30.515Z,447
2018-11-03T01:26:37.735Z,448
2018-11-03T01:27:44.940Z,448
2018-11-03T01:28:51.865Z,447
2018-11-03T01:29:58.790Z,448
2018-11-03T01:31:05.722Z,447
2018-11-03T01:32:12.655Z,447
2018-11-03T01:33:19.600Z,447
2018-11-03T01:34:26.808Z,447
2018-11-03T01:35:33.948Z,447
2018-11-03T01:36:41.167Z,447
2018-11-03T01:37:48.365Z,447
2018-11-03T01:38:55.571Z,447
2018-11-03T01:40:02.797Z,447
2018-11-03T01:41:09.449Z,447
2018-11-03T01:42:16.377Z,447
2018-11-03T01:43:23.577Z,447
2018-11-03T01:44:30.811Z,447
2018-11-03T01:45:37.743Z,447
2018-11-03T01:46:44.690Z,447
2018-11-03T01:47:51.605Z,446
2018-11-03T01:48:58.568Z,446
2018-11-03T01:50:05.762Z,446
2018-11-03T01:51:12.693Z,446
2018-11-03T01:52:19.907Z,447
2018-11-03T01:53:26.277Z,447
2018-11-03T01:54:33.478Z,447
2018-11-03T01:55:40.141Z,447
2018-11-03T01:56:47.353Z,447
2018-11-03T01:57:54.281Z,447
2018-11-03T01:59:01.548Z,447
2018-11-03T02:00:08.477Z,447
2018-11-03T02:01:15.694Z,446
2018-11-03T02:02:22.657Z,446
2018-11-03T02:03:29.577Z,446
2018-11-03T02:04:36.781Z,446
2018-11-03T02:05:43.989Z,447
2018-11-03T02:06:50.906Z,447
2018-11-03T02:07:57.840Z,447
2018-11-03T02:09:04.773Z,447
2018-11-03T02:10:11.435Z,447
2018-11-03T02:11:18.370Z,447
2018-11-03T02:12:25.295Z,447
2018-11-03T02:13:32.218Z,447
2018-11-03T02:14:39.153Z,447
2018-11-03T02:15:46.076Z,446
2018-11-03T02:16:53.008Z,447
2018-11-03T02:17:59.979Z,447
2018-11-03T02:19:06.637Z,447
2018-11-03T02:20:13.609Z,447
2018-11-03T02:21:20.541Z,447
2018-11-03T02:22:27.739Z,447
2018-11-03T02:23:35.009Z,446
2018-11-03T02:24:41.615Z,447
2018-11-03T02:25:48.545Z,447
2018-11-03T02:26:55.473Z,447
2018-11-03T02:28:02.684Z,448
2018-11-03T02:29:09.886Z,447
2018-11-03T02:30:16.813Z,447
2018-11-03T02:31:23.464Z,448
2018-11-03T02:32:30.392Z,448
2018-11-03T02:33:37.043Z,448
2018-11-03T02:34:43.689Z,447
2018-11-03T02:35:50.625Z,447
2018-11-03T02:36:57.823Z,447
2018-11-03T02:38:04.751Z,448
2018-11-03T02:39:11.678Z,447
2018-11-03T02:40:18.879Z,448
2018-11-03T02:41:26.119Z,448
2018-11-03T02:42:33.319Z,448
2018-11-03T02:43:40.248Z,448
2018-11-03T02:44:47.179Z,447
2018-11-03T02:45:53.834Z,448
2018-11-03T02:47:00.487Z,448
2018-11-03T02:48:07.689Z,448
2018-11-03T02:49:14.621Z,447
2018-11-03T02:50:21.569Z,449
2018-11-03T02:51:28.327Z,448
2018-11-03T02:52:35.349Z,449
2018-11-03T02:53:42.570Z,449
2018-11-03T02:54:49.234Z,449
2018-11-03T02:55:56.476Z,449
2018-11-03T02:57:03.662Z,449
2018-11-03T02:58:10.310Z,449
2018-11-03T02:59:17.534Z,449
2018-11-03T03:00:25.870Z,449
2018-11-03T03:01:33.564Z,450
2018-11-03T03:02:41.176Z,449
2018-11-03T03:03:48.934Z,449
2018-11-03T03:04:55.720Z,448
2018-11-03T03:06:02.277Z,448
2018-11-03T03:07:09.638Z,448
2018-11-03T03:08:16.868Z,448
2018-11-03T03:09:24.062Z,447
2018-11-03T03:10:30.988Z,448
2018-11-03T03:11:38.200Z,447
2018-11-03T03:12:45.141Z,447
2018-11-03T03:13:52.348Z,446
2018-11-03T03:14:59.551Z,447
2018-11-03T03:16:06.759Z,447
2018-11-03T03:17:13.711Z,447
2018-11-03T03:18:20.993Z,446
2018-11-03T03:19:28.200Z,447
2018-11-03T03:20:35.423Z,448
2018-11-03T03:21:42.381Z,447
2018-11-03T03:22:49.306Z,448
2018-11-03T03:23:56.232Z,447
2018-11-03T03:25:03.431Z,447
2018-11-03T03:26:10.093Z,447
2018-11-03T03:27:17.285Z,448
2018-11-03T03:28:24.486Z,447
2018-11-03T03:29:32.204Z,447
2018-11-03T03:30:39.627Z,447
2018-11-03T03:31:46.570Z,447
2018-11-03T03:32:53.544Z,447
2018-11-03T03:34:00.483Z,448
2018-11-03T03:35:07.095Z,447
2018-11-03T03:36:14.025Z,447
2018-11-03T03:37:21.231Z,447
2018-11-03T03:38:28.159Z,447
2018-11-03T03:39:35.083Z,447
2018-11-03T03:40:42.019Z,447
2018-11-03T03:41:48.965Z,447
2018-11-03T03:42:56.163Z,447
2018-11-03T03:44:03.088Z,447
2018-11-03T03:45:10.301Z,448
2018-11-03T03:46:17.504Z,447
2018-11-03T03:47:24.438Z,447
2018-11-03T03:48:31.380Z,447
2018-11-03T03:49:38.572Z,447
2018-11-03T03:50:45.776Z,447
2018-11-03T03:51:52.710Z,447
2018-11-03T03:52:59.632Z,447
2018-11-03T03:54:06.836Z,446
2018-11-03T03:55:13.767Z,447
2018-11-03T03:56:20.968Z,447
2018-11-03T03:57:28.172Z,447
2018-11-03T03:58:35.106Z,447
2018-11-03T03:59:42.336Z,447
2018-11-03T04:00:49.281Z,447
2018-11-03T04:01:56.491Z,448
2018-11-03T04:03:03.700Z,447
2018-11-03T04:04:10.910Z,447
2018-11-03T04:05:18.107Z,446
2018-11-03T04:06:25.008Z,447
2018-11-03T04:07:31.733Z,447
2018-11-03T04:08:38.676Z,447
2018-11-03T04:09:45.602Z,448
2018-11-03T04:10:52.533Z,447
2018-11-03T04:11:59.461Z,447
2018-11-03T04:13:06.387Z,446
2018-11-03T04:14:13.611Z,447
2018-11-03T04:15:20.820Z,447
2018-11-03T04:16:28.018Z,447
2018-11-03T04:17:34.946Z,448
2018-11-03T04:18:42.159Z,447
2018-11-03T04:19:48.821Z,447
2018-11-03T04:20:55.747Z,447
2018-11-03T04:22:02.949Z,447
2018-11-03T04:23:09.888Z,447
2018-11-03T04:24:17.183Z,447
2018-11-03T04:25:24.096Z,447
2018-11-03T04:26:30.757Z,446
2018-11-03T04:27:37.976Z,446
2018-11-03T04:28:45.184Z,446
2018-11-03T04:29:52.385Z,446
2018-11-03T04:30:59.310Z,447
2018-11-03T04:32:05.963Z,447
2018-11-03T04:33:12.625Z,447
2018-11-03T04:34:19.828Z,447
2018-11-03T04:35:27.025Z,446
2018-11-03T04:36:33.702Z,447
2018-11-03T04:37:40.622Z,447
2018-11-03T04:38:47.823Z,447
2018-11-03T04:39:54.756Z,446
2018-11-03T04:41:01.765Z,446
2018-11-03T04:42:08.614Z,446
2018-11-03T04:43:15.549Z,446
2018-11-03T04:44:22.755Z,447
2018-11-03T04:45:30.397Z,447
2018-11-03T04:46:37.584Z,446
2018-11-03T04:47:44.790Z,446
2018-11-03T04:48:51.443Z,446
2018-11-03T04:49:58.643Z,446
2018-11-03T04:51:05.844Z,446
2018-11-03T04:52:13.091Z,445
2018-11-03T04:53:20.295Z,446
2018-11-03T04:54:27.217Z,446
2018-11-03T04:55:34.216Z,446
2018-11-03T04:56:41.139Z,446
2018-11-03T04:57:48.339Z,446
2018-11-03T04:58:55.551Z,446
2018-11-03T05:00:02.623Z,446
2018-11-03T05:01:09.816Z,446
2018-11-03T05:02:16.479Z,446
2018-11-03T05:03:23.679Z,446
2018-11-03T05:04:30.878Z,446
2018-11-03T05:05:37.799Z,446
2018-11-03T05:06:45.011Z,446
2018-11-03T05:07:52.217Z,446
2018-11-03T05:08:59.425Z,445
2018-11-03T05:10:06.756Z,446
2018-11-03T05:11:13.983Z,446
2018-11-03T05:12:20.907Z,446
2018-11-03T05:13:27.846Z,445
2018-11-03T05:14:35.046Z,445
2018-11-03T05:15:41.969Z,445
2018-11-03T05:16:49.169Z,445
2018-11-03T05:17:55.823Z,445
2018-11-03T05:19:03.022Z,446
2018-11-03T05:20:10.221Z,445
2018-11-03T05:21:17.795Z,446
2018-11-03T05:22:25.180Z,446
2018-11-03T05:23:32.385Z,446
2018-11-03T05:24:39.352Z,446
2018-11-03T05:25:46.558Z,447
2018-11-03T05:26:53.763Z,445
2018-11-03T05:28:00.700Z,445
2018-11-03T05:29:07.689Z,445
2018-11-03T05:30:14.885Z,446
2018-11-03T05:31:22.451Z,445
2018-11-03T05:32:30.060Z,445
2018-11-03T05:33:37.272Z,445
2018-11-03T05:34:44.479Z,445
2018-11-03T05:35:51.410Z,445
2018-11-03T05:36:58.073Z,445
2018-11-03T05:38:05.273Z,446
2018-11-03T05:39:12.202Z,446
2018-11-03T05:40:19.405Z,445
2018-11-03T05:41:26.344Z,446
2018-11-03T05:42:33.549Z,445
2018-11-03T05:43:40.475Z,446
2018-11-03T05:44:47.406Z,445
2018-11-03T05:45:54.636Z,446
2018-11-03T05:47:01.836Z,446
2018-11-03T05:48:08.516Z,445
2018-11-03T05:49:15.709Z,445
2018-11-03T05:50:22.631Z,445
2018-11-03T05:51:29.578Z,445
2018-11-03T05:52:36.784Z,446
2018-11-03T05:53:43.712Z,445
2018-11-03T05:54:50.916Z,445
2018-11-03T05:55:57.607Z,445
2018-11-03T05:57:04.525Z,445
2018-11-03T05:58:11.458Z,445
2018-11-03T05:59:18.697Z,445
2018-11-03T06:00:25.372Z,445
2018-11-03T06:01:32.303Z,445
2018-11-03T06:02:38.956Z,445
2018-11-03T06:03:46.155Z,445
2018-11-03T06:04:53.120Z,445
2018-11-03T06:06:00.322Z,445
2018-11-03T06:07:07.000Z,446
2018-11-03T06:08:14.200Z,446
2018-11-03T06:09:21.943Z,446
2018-11-03T06:10:29.850Z,446
2018-11-03T06:11:37.564Z,446
2018-11-03T06:12:44.671Z,447
2018-11-03T06:13:52.082Z,446
2018-11-03T06:14:59.250Z,447
2018-11-03T06:16:06.176Z,446
2018-11-03T06:17:13.426Z,446
2018-11-03T06:18:20.344Z,447
2018-11-03T06:19:27.590Z,446
2018-11-03T06:20:34.792Z,447
2018-11-03T06:21:41.715Z,447
2018-11-03T06:22:49.027Z,447
2018-11-03T06:23:55.993Z,447
2018-11-03T06:25:02.918Z,447
2018-11-03T06:26:09.851Z,447
2018-11-03T06:27:17.071Z,446
2018-11-03T06:28:24.027Z,447
2018-11-03T06:29:31.219Z,447
2018-11-03T06:30:38.147Z,447
2018-11-03T06:31:45.072Z,446
2018-11-03T06:32:52.314Z,447
2018-11-03T06:33:59.272Z,446
2018-11-03T06:35:06.428Z,446
2018-11-03T06:36:13.349Z,446
2018-11-03T06:37:20.313Z,446
2018-11-03T06:38:27.531Z,446
2018-11-03T06:39:34.184Z,446
2018-11-03T06:40:40.573Z,445
2018-11-03T06:41:47.502Z,445
2018-11-03T06:42:54.704Z,445
2018-11-03T06:44:01.357Z,445
2018-11-03T06:45:08.569Z,444
2018-11-03T06:46:15.221Z,445
2018-11-03T06:47:22.733Z,445
2018-11-03T06:48:30.090Z,445
2018-11-03T06:49:37.296Z,444
2018-11-03T06:50:44.506Z,444
2018-11-03T06:51:51.711Z,444
2018-11-03T06:52:58.910Z,444
2018-11-03T06:54:05.838Z,444
2018-11-03T06:55:12.791Z,444
2018-11-03T06:56:19.438Z,444
2018-11-03T06:57:26.698Z,444
2018-11-03T06:58:33.902Z,443
2018-11-03T06:59:40.839Z,443
2018-11-03T07:00:48.046Z,443
2018-11-03T07:01:55.253Z,442
2018-11-03T07:03:02.184Z,443
2018-11-03T07:04:09.104Z,442
2018-11-03T07:05:16.673Z,441
2018-11-03T07:06:23.767Z,441
2018-11-03T07:07:31.005Z,441
2018-11-03T07:08:38.225Z,440
2018-11-03T07:09:45.461Z,439
2018-11-03T07:10:52.432Z,439
2018-11-03T07:11:59.876Z,439
2018-11-03T07:13:07.602Z,439
2018-11-03T07:14:14.924Z,438
2018-11-03T07:15:22.140Z,438
2018-11-03T07:16:29.094Z,438
2018-11-03T07:17:36.021Z,437
2018-11-03T07:18:43.226Z,437
2018-11-03T07:19:50.430Z,437
2018-11-03T07:20:57.359Z,438
2018-11-03T07:22:04.034Z,438
2018-11-03T07:23:10.957Z,439
2018-11-03T07:24:17.886Z,441
2018-11-03T07:25:24.815Z,442
2018-11-03T07:26:32.023Z,442
2018-11-03T07:27:38.952Z,442
2018-11-03T07:28:45.889Z,442
2018-11-03T07:29:53.584Z,442
2018-11-03T07:31:00.558Z,441
2018-11-03T07:32:07.769Z,440
2018-11-03T07:33:14.967Z,440
2018-11-03T07:34:21.903Z,440
2018-11-03T07:35:28.835Z,440
2018-11-03T07:36:35.783Z,439
2018-11-03T07:37:42.981Z,439
2018-11-03T07:38:49.917Z,439
2018-11-03T07:39:56.577Z,440
2018-11-03T07:41:03.848Z,440
2018-11-03T07:42:11.254Z,440
2018-11-03T07:43:18.186Z,439
2018-11-03T07:44:25.402Z,439
2018-11-03T07:45:32.606Z,439
2018-11-03T07:46:39.544Z,439
2018-11-03T07:47:46.746Z,439
2018-11-03T07:48:54.440Z,439
2018-11-03T07:50:01.450Z,439
2018-11-03T07:51:08.650Z,438
2018-11-03T07:52:15.880Z,438
2018-11-03T07:53:22.788Z,438
2018-11-03T07:54:30.211Z,438
2018-11-03T07:55:37.274Z,437
2018-11-03T07:56:44.218Z,436
2018-11-03T07:57:51.421Z,436
2018-11-03T07:58:58.654Z,436
2018-11-03T08:00:05.581Z,437
2018-11-03T08:01:12.523Z,437
2018-11-03T08:02:19.188Z,436
2018-11-03T08:03:26.400Z,436
2018-11-03T08:04:33.601Z,435
2018-11-03T08:05:40.266Z,434
2018-11-03T08:06:47.189Z,435
2018-11-03T08:07:54.394Z,434
2018-11-03T08:09:01.963Z,434
2018-11-03T08:10:09.262Z,434
2018-11-03T08:11:16.191Z,434
2018-11-03T08:12:23.413Z,436
2018-11-03T08:13:30.616Z,436
2018-11-03T08:14:37.919Z,436
2018-11-03T08:15:45.627Z,437
2018-11-03T08:16:52.919Z,438
2018-11-03T08:18:00.119Z,438
2018-11-03T08:19:07.321Z,439
2018-11-03T08:20:14.533Z,439
2018-11-03T08:22:34.725Z,440
2018-11-03T08:23:41.167Z,440
2018-11-03T08:24:48.435Z,441
2018-11-03T08:25:55.644Z,441
2018-11-03T08:27:02.576Z,441
2018-11-03T08:28:09.781Z,441
2018-11-03T08:29:16.446Z,440
2018-11-03T08:30:23.099Z,440
2018-11-03T08:31:30.677Z,440
2018-11-03T08:32:37.793Z,440
2018-11-03T08:33:44.446Z,440
2018-11-03T08:34:51.377Z,439
2018-11-03T08:35:58.305Z,439
2018-11-03T08:37:05.231Z,439
2018-11-03T08:38:12.493Z,439
2018-11-03T08:39:19.510Z,438
2018-11-03T08:40:26.147Z,439
2018-11-03T08:41:32.541Z,439
2018-11-03T08:42:39.186Z,439
2018-11-03T08:43:46.389Z,439
2018-11-03T08:44:53.319Z,439
2018-11-03T08:46:00.241Z,439
2018-11-03T08:47:07.449Z,439
2018-11-03T08:48:14.676Z,439
2018-11-03T08:49:20.941Z,439
2018-11-03T08:50:28.145Z,439
2018-11-03T08:51:34.811Z,439
2018-11-03T08:52:42.014Z,440
2018-11-03T08:53:49.227Z,440
2018-11-03T08:54:56.432Z,441
2018-11-03T08:56:03.637Z,440
2018-11-03T08:57:10.580Z,440
2018-11-03T08:58:17.514Z,441
2018-11-03T08:59:24.597Z,440
2018-11-03T09:00:31.874Z,440
2018-11-03T09:01:38.806Z,440
2018-11-03T09:02:45.471Z,439
2018-11-03T09:03:52.685Z,439
2018-11-03T09:04:59.630Z,439
2018-11-03T09:06:06.289Z,439
2018-11-03T09:07:13.964Z,440
2018-11-03T09:08:22.194Z,440
2018-11-03T09:09:29.442Z,440
2018-11-03T09:10:37.739Z,440
2018-11-03T09:11:45.018Z,440
2018-11-03T09:12:52.260Z,440
2018-11-03T09:13:59.189Z,440
2018-11-03T09:15:06.813Z,440
2018-11-03T09:16:14.004Z,440
2018-11-03T09:17:21.208Z,440
2018-11-03T09:18:28.139Z,440
2018-11-03T09:19:35.347Z,440
2018-11-03T09:20:42.549Z,440
2018-11-03T09:21:49.421Z,440
2018-11-03T09:22:56.610Z,440
2018-11-03T09:24:03.538Z,440
2018-11-03T09:25:10.749Z,440
2018-11-03T09:26:17.449Z,440
2018-11-03T09:27:24.687Z,440
2018-11-03T09:28:31.938Z,439
2018-11-03T09:29:39.175Z,439
2018-11-03T09:30:46.474Z,439
2018-11-03T09:31:53.331Z,438
2018-11-03T09:33:00.342Z,438
2018-11-03T09:34:07.266Z,437
2018-11-03T09:35:14.191Z,437
2018-11-03T09:36:21.118Z,437
2018-11-03T09:37:27.781Z,437
2018-11-03T09:38:35.313Z,437
2018-11-03T09:39:42.013Z,437
2018-11-03T09:40:48.943Z,437
2018-11-03T09:41:56.144Z,438
2018-11-03T09:43:03.850Z,438
2018-11-03T09:44:10.802Z,439
2018-11-03T09:45:18.009Z,439
2018-11-03T09:46:24.964Z,440
2018-11-03T09:47:31.887Z,439
2018-11-03T09:48:39.088Z,438
2018-11-03T09:49:46.313Z,438
2018-11-03T09:50:53.599Z,437
2018-11-03T09:52:00.620Z,437
2018-11-03T09:53:07.819Z,436
2018-11-03T09:54:14.474Z,435
2018-11-03T09:55:21.402Z,435
2018-11-03T09:56:28.445Z,433
2018-11-03T09:57:35.528Z,433
2018-11-03T09:58:42.732Z,432
2018-11-03T09:59:49.934Z,432
2018-11-03T10:00:57.150Z,432
2018-11-03T10:02:04.350Z,432
2018-11-03T10:03:11.284Z,431
2018-11-03T10:04:18.225Z,431
2018-11-03T10:05:25.431Z,431
2018-11-03T10:06:32.992Z,430
2018-11-03T10:07:40.439Z,428
2018-11-03T10:08:47.652Z,428
2018-11-03T10:09:54.885Z,426
2018-11-03T10:11:02.080Z,425
2018-11-03T10:12:09.288Z,424
2018-11-03T10:13:15.942Z,426
2018-11-03T10:14:23.174Z,427
2018-11-03T10:15:30.376Z,424
2018-11-03T10:16:37.579Z,419
2018-11-03T10:17:44.843Z,420
2018-11-03T10:18:52.054Z,422
2018-11-03T10:19:59.265Z,425
2018-11-03T10:21:06.215Z,427
2018-11-03T10:22:13.696Z,428
2018-11-03T10:23:21.005Z,428
2018-11-03T10:24:27.926Z,429
2018-11-03T10:25:34.853Z,429
2018-11-03T10:26:41.796Z,429
2018-11-03T10:27:48.769Z,429
2018-11-03T10:28:55.708Z,430
2018-11-03T10:30:02.647Z,430
2018-11-03T10:31:09.852Z,430
2018-11-03T10:32:16.785Z,429
2018-11-03T10:33:23.823Z,428
2018-11-03T10:34:30.729Z,427
2018-11-03T10:35:37.391Z,429
2018-11-03T10:36:44.041Z,430
2018-11-03T10:37:51.080Z,429
2018-11-03T10:38:58.070Z,429
2018-11-03T10:40:04.725Z,426
2018-11-03T10:41:11.923Z,425
2018-11-03T10:42:18.733Z,425
2018-11-03T10:43:25.393Z,425
2018-11-03T10:44:32.600Z,426
2018-11-03T10:45:39.818Z,422
2018-11-03T10:46:47.047Z,419
2018-11-03T10:47:54.240Z,424
2018-11-03T10:49:01.183Z,424
2018-11-03T10:50:08.116Z,422
2018-11-03T10:51:15.051Z,415
2018-11-03T10:52:22.256Z,416
2018-11-03T10:53:29.379Z,414
2018-11-03T10:54:36.395Z,416
2018-11-03T10:55:43.603Z,418
2018-11-03T10:56:50.527Z,420
2018-11-03T10:57:57.745Z,425
2018-11-03T10:59:04.947Z,424
2018-11-03T11:00:12.152Z,425
2018-11-03T11:01:18.847Z,423
2018-11-03T11:02:25.776Z,423
2018-11-03T11:03:32.832Z,423
2018-11-03T11:04:39.581Z,422
2018-11-03T11:05:46.776Z,422
2018-11-03T11:06:53.979Z,422
2018-11-03T11:08:00.651Z,422
2018-11-03T11:09:07.862Z,422
2018-11-03T11:10:14.529Z,422
2018-11-03T11:11:21.457Z,421
2018-11-03T11:12:28.116Z,418
2018-11-03T11:14:48.687Z,417
2018-11-03T11:15:56.583Z,417
2018-11-03T11:17:05.482Z,417
2018-11-03T11:18:12.688Z,417
2018-11-03T11:19:19.408Z,419
2018-11-03T11:20:26.670Z,420
2018-11-03T11:21:33.349Z,421
2018-11-03T11:22:40.553Z,421
2018-11-03T11:23:47.822Z,420
2018-11-03T11:24:55.672Z,420
2018-11-03T11:26:03.285Z,421
2018-11-03T11:27:09.942Z,420
2018-11-03T11:28:17.187Z,421
2018-11-03T11:29:24.393Z,421
2018-11-03T11:30:31.604Z,419
2018-11-03T11:31:39.119Z,421
2018-11-03T11:32:46.451Z,420
2018-11-03T11:33:53.863Z,420
2018-11-03T11:35:00.249Z,420
2018-11-03T11:36:07.177Z,418
2018-11-03T11:37:14.113Z,418
2018-11-03T11:38:21.047Z,418
2018-11-03T11:39:27.708Z,418
2018-11-03T11:40:34.641Z,419
2018-11-03T11:41:41.311Z,419
2018-11-03T11:42:48.545Z,419
2018-11-03T11:43:55.528Z,419
2018-11-03T11:45:02.213Z,421
2018-11-03T11:46:09.146Z,422
2018-11-03T11:47:16.069Z,421
2018-11-03T11:48:23.020Z,421
2018-11-03T11:49:29.958Z,420
2018-11-03T11:50:36.364Z,421
2018-11-03T11:51:43.294Z,422
2018-11-03T11:52:50.498Z,421
2018-11-03T11:53:57.434Z,423
2018-11-03T11:55:04.973Z,422
2018-11-03T11:56:12.535Z,422
2018-11-03T11:57:19.743Z,421
2018-11-03T11:58:25.865Z,420
2018-11-03T11:59:32.520Z,420
2018-11-03T12:00:39.785Z,419
2018-11-03T12:01:46.312Z,420
2018-11-03T12:02:53.267Z,420
2018-11-03T12:03:59.654Z,419
2018-11-03T12:05:06.586Z,419
2018-11-03T12:06:13.794Z,420
2018-11-03T12:07:20.730Z,421
2018-11-03T12:08:27.378Z,422
2018-11-03T12:09:34.588Z,422
2018-11-03T12:10:41.809Z,422
2018-11-03T12:11:48.475Z,422
2018-11-03T12:12:55.406Z,421
2018-11-03T12:14:02.354Z,421
2018-11-03T12:15:09.555Z,423
2018-11-03T12:16:17.305Z,423
2018-11-03T12:17:24.340Z,422
2018-11-03T12:18:31.268Z,422
2018-11-03T12:19:38.202Z,422
2018-11-03T12:20:45.412Z,422
2018-11-03T12:21:52.099Z,422
2018-11-03T12:22:59.309Z,420
2018-11-03T12:24:06.251Z,420
2018-11-03T12:25:13.183Z,419
2018-11-03T12:26:20.134Z,418
2018-11-03T12:27:27.061Z,416
2018-11-03T12:28:33.986Z,418
2018-11-03T12:29:40.939Z,417
2018-11-03T12:30:47.866Z,416
2018-11-03T12:31:54.527Z,417
2018-11-03T12:33:01.846Z,416
2018-11-03T12:34:09.053Z,416
2018-11-03T12:35:16.013Z,417
2018-11-03T12:36:23.310Z,417
2018-11-03T12:37:30.275Z,417
2018-11-03T12:38:37.232Z,418
2018-11-03T12:39:44.563Z,418
2018-11-03T12:40:51.267Z,419
2018-11-03T12:41:58.683Z,417
2018-11-03T12:43:05.895Z,418
2018-11-03T12:44:13.109Z,417
2018-11-03T12:45:20.318Z,419
2018-11-03T12:46:27.548Z,417
2018-11-03T12:47:34.517Z,418
2018-11-03T12:48:41.461Z,419
2018-11-03T12:49:48.700Z,419
2018-11-03T12:50:55.953Z,421
2018-11-03T12:52:02.891Z,420
2018-11-03T12:53:10.101Z,421
2018-11-03T12:54:17.053Z,419
2018-11-03T12:55:24.239Z,420
2018-11-03T12:56:30.916Z,419
2018-11-03T12:57:37.879Z,419
2018-11-03T12:58:44.831Z,419
2018-11-03T12:59:52.040Z,418
2018-11-03T13:00:59.288Z,420
2018-11-03T13:02:06.230Z,420
2018-11-03T13:03:13.428Z,420
2018-11-03T13:04:20.647Z,421
2018-11-03T13:05:27.857Z,421
2018-11-03T13:06:34.688Z,423
2018-11-03T13:07:41.351Z,423
2018-11-03T13:08:48.311Z,422
2018-11-03T13:09:55.334Z,422
2018-11-03T13:11:01.996Z,422
2018-11-03T13:12:09.458Z,423
2018-11-03T13:13:16.790Z,423
2018-11-03T13:14:23.721Z,421
2018-11-03T13:15:30.376Z,422
2018-11-03T13:16:37.590Z,423
2018-11-03T13:17:44.796Z,422
2018-11-03T13:18:51.194Z,421
2018-11-03T13:19:57.575Z,420
2018-11-03T13:21:04.801Z,420
2018-11-03T13:22:12.006Z,419
2018-11-03T13:23:19.255Z,420
2018-11-03T13:24:26.469Z,421
2018-11-03T13:25:33.680Z,422
2018-11-03T13:26:40.608Z,422
2018-11-03T13:27:47.545Z,421
2018-11-03T13:28:54.762Z,422
2018-11-03T13:30:01.972Z,420
2018-11-03T13:31:08.919Z,421
2018-11-03T13:32:15.298Z,422
2018-11-03T13:33:22.231Z,423
2018-11-03T13:34:29.437Z,424
2018-11-03T13:35:36.651Z,424
2018-11-03T13:36:43.611Z,424
2018-11-03T13:37:50.820Z,424
2018-11-03T13:38:58.033Z,424
2018-11-03T13:40:04.686Z,424
2018-11-03T13:41:11.066Z,424
2018-11-03T13:42:18.295Z,423
2018-11-03T13:43:25.222Z,423
2018-11-03T13:44:32.439Z,424
2018-11-03T13:45:39.091Z,425
2018-11-03T13:46:46.039Z,424
2018-11-03T13:47:53.497Z,425
2018-11-03T13:49:00.489Z,424
2018-11-03T13:50:07.431Z,424
2018-11-03T13:51:14.634Z,424
2018-11-03T13:52:21.569Z,425
2018-11-03T13:53:28.772Z,424
2018-11-03T13:54:35.430Z,423
2018-11-03T13:55:42.642Z,422
2018-11-03T13:56:49.960Z,422
2018-11-03T13:57:56.926Z,422
2018-11-03T13:59:04.136Z,422
2018-11-03T14:00:11.344Z,423
2018-11-03T14:01:18.009Z,423
2018-11-03T14:02:24.947Z,423
2018-11-03T14:03:31.882Z,424
2018-11-03T14:04:38.818Z,423
2018-11-03T14:05:45.489Z,425
2018-11-03T14:06:52.164Z,424
2018-11-03T14:07:59.100Z,425
2018-11-03T14:09:06.051Z,425
2018-11-03T14:10:13.248Z,424
2018-11-03T14:11:20.364Z,425
2018-11-03T14:12:27.451Z,425
2018-11-03T14:13:34.674Z,425
2018-11-03T14:14:41.608Z,426
2018-11-03T14:15:48.536Z,425
2018-11-03T14:16:55.816Z,425
2018-11-03T14:18:02.789Z,425
2018-11-03T14:19:09.725Z,425
2018-11-03T14:20:16.666Z,425
2018-11-03T14:21:23.332Z,425
2018-11-03T14:22:30.259Z,425
2018-11-03T14:23:37.465Z,425
2018-11-03T14:24:44.690Z,425
2018-11-03T14:25:51.892Z,426
2018-11-03T14:26:59.098Z,426
2018-11-03T14:28:06.569Z,426
2018-11-03T14:29:14.232Z,426
2018-11-03T14:30:20.627Z,426
2018-11-03T14:31:27.551Z,426
2018-11-03T14:32:34.765Z,426
2018-11-03T14:33:41.429Z,427
2018-11-03T14:34:48.642Z,427
2018-11-03T14:35:55.576Z,427
2018-11-03T14:37:02.510Z,427
2018-11-03T14:38:09.443Z,427
2018-11-03T14:39:16.099Z,427
2018-11-03T14:40:22.482Z,427
2018-11-03T14:41:29.151Z,427
2018-11-03T14:42:36.086Z,427
2018-11-03T14:43:43.297Z,427
2018-11-03T14:44:50.684Z,427
2018-11-03T14:45:57.430Z,427
2018-11-03T14:47:04.366Z,427
2018-11-03T14:48:11.027Z,427
2018-11-03T14:49:18.242Z,427
2018-11-03T14:50:25.446Z,428
2018-11-03T14:51:32.647Z,427
2018-11-03T14:52:39.856Z,428
2018-11-03T14:53:46.517Z,428
2018-11-03T14:54:53.449Z,428
2018-11-03T14:56:00.655Z,429
2018-11-03T14:57:07.584Z,429
2018-11-03T14:58:14.523Z,429
2018-11-03T14:59:21.730Z,429
2018-11-03T15:00:28.125Z,429
2018-11-03T15:01:35.335Z,430
2018-11-03T15:02:42.544Z,430
2018-11-03T15:03:49.195Z,430
2018-11-03T15:04:56.127Z,430
2018-11-03T15:06:03.336Z,430
2018-11-03T15:07:10.541Z,431
2018-11-03T15:08:17.863Z,431
2018-11-03T15:09:25.105Z,431
2018-11-03T15:10:32.313Z,431
2018-11-03T15:11:39.241Z,432
2018-11-03T15:12:46.450Z,432
2018-11-03T15:13:54.274Z,432
2018-11-03T15:15:01.869Z,432
2018-11-03T15:16:09.410Z,433
2018-11-03T15:17:16.622Z,433
2018-11-03T15:18:23.553Z,433
2018-11-03T15:19:30.760Z,433
2018-11-03T15:20:37.687Z,433
2018-11-03T15:21:44.894Z,433
2018-11-03T15:22:52.105Z,433
2018-11-03T15:23:59.040Z,434
2018-11-03T15:25:05.980Z,433
2018-11-03T15:26:13.186Z,434